RJSR(METAR)
04/18 19:00
METAR RJSR 181000Z VRB01KT 9999 FEW050 BKN130 BKN/// 14/02 Q1010 RMK
1CU050 5AC130 A2983=
戻る
トップページへ戻る
IMOC Co,.Ltd.